Time;durP1;ratioP1;P1;durP2;ratioP2;P2;SDS_P1;SDS_P2;PMS_P1;PMS_P2;Temp;Humidity;BMP_temperature;BMP_pressure;BME280_temperature;BME280_humidity;BME280_pressure;Samples;Min_cycle;Max_cycle;Signal;HPM_P1;HPM_P2
2021/04/06 00:03:16;;;;;;;1.10;0.80;;;;;;;-0.97;100.00;98608.38;10496849;28;20182;-74
2021/04/06 00:08:36;;;;;;;0.80;0.50;;;;;;;-0.95;100.00;98603.41;10497652;28;20202;-74
2021/04/06 00:13:56;;;;;;;0.93;0.60;;;;;;;-0.97;100.00;98605.69;10495944;28;20182;-73
2021/04/06 00:19:17;;;;;;;1.07;0.97;;;;;;;-0.89;100.00;98600.16;10497934;28;20559;-74
2021/04/06 00:24:40;;;;;;;0.83;0.47;;;;;;;-0.92;100.00;98591.94;10497409;28;20214;-73
2021/04/06 00:30:10;;;;;;;1.40;0.97;;;;;;;-0.93;100.00;98584.97;10496441;28;20170;-73
2021/04/06 00:35:31;;;;;;;0.90;0.60;;;;;;;-0.95;100.00;98581.81;10497385;28;20192;-74
2021/04/06 00:40:52;;;;;;;0.83;0.47;;;;;;;-0.99;100.00;98560.09;10482160;28;20253;-73
2021/04/06 00:46:24;;;;;;;0.93;0.80;;;;;;;-1.03;100.00;98550.31;10480597;28;20638;-74
2021/04/06 00:51:51;;;;;;;0.80;0.40;;;;;;;-1.02;100.00;98533.81;10481969;28;20257;-74
2021/04/06 00:57:13;;;;;;;0.80;0.50;;;;;;;-1.07;100.00;98534.00;10497006;28;20179;-74
2021/04/06 01:02:32;;;;;;;11.60;0.70;;;;;;;-1.16;100.00;98519.84;10495952;28;20170;-74
2021/04/06 01:07:52;;;;;;;0.80;0.50;;;;;;;-1.19;100.00;98514.31;10481320;28;20230;-73
2021/04/06 01:13:12;;;;;;;0.80;0.50;;;;;;;-1.18;100.00;98508.63;10496744;28;20186;-74
2021/04/06 01:18:31;;;;;;;0.80;0.40;;;;;;;-1.18;100.00;98497.00;10495309;28;20175;-73
2021/04/06 01:23:50;;;;;;;1.60;1.37;;;;;;;-1.21;100.00;98492.31;10499837;28;20214;-74
2021/04/06 01:29:09;;;;;;;0.90;0.50;;;;;;;-1.25;100.00;98499.50;10502308;28;20210;-74
2021/04/06 01:34:29;;;;;;;0.80;0.40;;;;;;;-1.25;100.00;98491.41;10504271;28;20568;-74
2021/04/06 01:39:52;;;;;;;1.50;1.03;;;;;;;-1.27;100.00;98491.75;10488600;28;20254;-74
2021/04/06 01:45:16;;;;;;;2.40;0.60;;;;;;;-1.28;100.00;98497.47;10502300;28;20565;-73
2021/04/06 01:50:35;;;;;;;0.80;0.40;;;;;;;-1.30;100.00;98488.94;10503650;28;20175;-73
2021/04/06 01:56:08;;;;;;;1.93;1.00;;;;;;;-1.34;100.00;98479.94;10487988;28;20179;-74
2021/04/06 02:01:28;;;;;;;0.80;0.50;;;;;;;-1.33;100.00;98478.81;10501750;28;20183;-73
2021/04/06 02:06:48;;;;;;;0.80;0.50;;;;;;;-1.25;100.00;98477.91;10502389;28;20202;-73
2021/04/06 02:12:07;;;;;;;0.80;0.40;;;;;;;-1.22;100.00;98480.72;10502854;28;20171;-73
2021/04/06 02:17:26;;;;;;;1.00;0.70;;;;;;;-1.21;100.00;98474.19;10485953;28;20182;-74
2021/04/06 02:22:59;;;;;;;1.47;0.97;;;;;;;-1.14;100.00;98481.75;10502334;28;20175;-74
2021/04/06 02:28:20;;;;;;;0.80;0.50;;;;;;;-1.02;100.00;98481.72;10501436;28;20684;-73
2021/04/06 02:33:39;;;;;;;0.90;0.60;;;;;;;-0.83;100.00;98477.31;10500946;28;20202;-73
2021/04/06 02:38:58;;;;;;;0.80;0.50;;;;;;;-0.65;100.00;98462.44;10501759;28;20167;-73
2021/04/06 02:44:18;;;;;;;0.80;0.50;;;;;;;-0.59;100.00;98456.47;10484833;28;20250;-74
2021/04/06 02:49:37;;;;;;;0.80;0.50;;;;;;;-0.52;100.00;98472.06;10486126;28;20619;-75
2021/04/06 02:54:56;;;;;;;1.00;0.90;;;;;;;-0.48;100.00;98459.47;10493631;28;20266;-74
2021/04/06 03:00:24;;;;;;;0.90;0.50;;;;;;;-0.42;100.00;98456.19;10499564;28;20178;-74
2021/04/06 03:05:44;;;;;;;0.80;0.40;;;;;;;-0.42;100.00;98456.19;10500396;28;20293;-74
2021/04/06 03:11:04;;;;;;;2.57;1.03;;;;;;;-0.41;100.00;98449.66;10500212;28;20167;-74
2021/04/06 03:16:23;;;;;;;0.80;0.40;;;;;;;-0.41;100.00;98441.56;10483706;28;20625;-74
2021/04/06 03:21:42;;;;;;;0.90;0.63;;;;;;;-0.36;100.00;98446.72;10499771;28;20178;-74
2021/04/06 03:27:03;;;;;;;1.33;0.97;;;;;;;-0.32;100.00;98434.06;10499017;28;20689;-73
2021/04/06 03:32:22;;;;;;;0.90;0.80;;;;;;;-0.38;100.00;98423.88;10482738;28;20203;-74
2021/04/06 03:37:41;;;;;;;2.37;1.67;;;;;;;-0.36;100.00;98435.91;10484074;28;20171;-74
2021/04/06 03:43:15;;;;;;;13.23;3.93;;;;;;;-0.24;100.00;98445.88;10499061;28;20179;-74
2021/04/06 03:48:35;;;;;;;1.73;1.20;;;;;;;-0.15;100.00;98441.88;10496027;28;20214;-74
2021/04/06 03:53:56;;;;;;;0.80;0.50;;;;;;;-0.08;100.00;98444.78;10498553;28;20638;-74
2021/04/06 03:59:14;;;;;;;0.80;0.50;;;;;;;0.04;100.00;98450.13;10497113;28;20193;-73
2021/04/06 04:04:34;;;;;;;0.80;0.40;;;;;;;0.07;100.00;98452.94;10498336;28;20257;-74
2021/04/06 04:09:53;;;;;;;0.90;0.60;;;;;;;0.10;100.00;98451.44;10482937;28;20607;-74
2021/04/06 04:15:12;;;;;;;0.80;0.40;;;;;;;0.12;100.00;98457.28;10496870;28;20171;-74
2021/04/06 04:20:31;;;;;;;0.93;0.83;;;;;;;0.12;100.00;98441.06;10497949;28;20178;-74
2021/04/06 04:25:50;;;;;;;0.80;0.40;;;;;;;0.19;100.00;98452.06;10497101;28;20576;-73
2021/04/06 04:31:11;;;;;;;0.90;0.60;;;;;;;0.21;100.00;98452.53;10496115;28;20554;-74
2021/04/06 04:36:30;;;;;;;1.10;0.73;;;;;;;0.19;100.00;98447.47;10497422;28;20194;-74
2021/04/06 04:41:51;;;;;;;0.80;0.50;;;;;;;0.24;100.00;98451.84;10482281;28;20178;-74
2021/04/06 04:47:10;;;;;;;0.80;0.50;;;;;;;0.25;100.00;98453.38;10495211;28;20736;-73
2021/04/06 04:52:29;;;;;;;0.80;0.40;;;;;;;0.25;100.00;98442.56;10497284;28;20174;-73
2021/04/06 04:57:48;;;;;;;1.27;1.17;;;;;;;0.36;100.00;98452.53;10505540;28;20249;-73
2021/04/06 05:03:07;;;;;;;0.80;0.50;;;;;;;0.41;100.00;98446.88;10522881;28;20633;-73
2021/04/06 05:08:26;;;;;;;0.90;0.60;;;;;;;0.45;100.00;98446.94;10504660;28;20202;-73
2021/04/06 05:13:46;;;;;;;0.80;0.50;;;;;;;0.49;100.00;98454.03;10503884;28;20174;-73
2021/04/06 05:19:05;;;;;;;0.80;0.40;;;;;;;0.42;100.00;98461.16;10504658;28;20633;-73
2021/04/06 05:24:24;;;;;;;1.10;1.00;;;;;;;0.52;100.00;98460.66;10492381;28;20214;-73
2021/04/06 05:29:44;;;;;;;1.10;1.00;;;;;;;0.50;100.00;98474.53;10508441;28;20568;-73
2021/04/06 05:35:04;;;;;;;0.90;0.60;;;;;;;0.60;100.00;98482.16;10497613;28;20587;-73
2021/04/06 05:40:24;;;;;;;0.80;0.50;;;;;;;0.58;100.00;98479.00;10503957;28;20598;-73
2021/04/06 05:45:46;;;;;;;0.83;0.50;;;;;;;0.67;100.00;98476.91;10487206;28;20206;-75
2021/04/06 05:51:05;;;;;;;0.80;0.40;;;;;;;0.66;100.00;98482.66;10497633;28;20170;-74
2021/04/06 05:56:24;;;;;;;10.13;1.80;;;;;;;0.73;100.00;98491.75;10487862;28;20262;-74
2021/04/06 06:01:46;;;;;;;1.77;1.53;;;;;;;0.77;100.00;98489.13;10501891;28;20174;-74
2021/04/06 06:07:05;;;;;;;0.90;0.50;;;;;;;0.80;100.00;98502.75;10506302;28;20288;-73
2021/04/06 06:12:28;;;;;;;0.90;0.60;;;;;;;0.85;100.00;98510.59;10482975;28;20182;-73
2021/04/06 06:18:04;;;;;;;1.07;0.80;;;;;;;0.87;100.00;98508.31;10501351;28;20620;-74
2021/04/06 06:23:24;;;;;;;1.00;0.90;;;;;;;0.97;100.00;98505.09;10495430;28;20194;-73
2021/04/06 06:29:06;;;;;;;0.80;0.50;;;;;;;1.06;100.00;98517.31;10500267;28;20206;-73
2021/04/06 06:34:35;;;;;;;0.90;0.57;;;;;;;1.22;100.00;98507.25;10484714;28;20207;-73
2021/04/06 06:39:54;;;;;;;0.90;0.57;;;;;;;1.11;100.00;98519.75;10501643;28;20282;-73
2021/04/06 06:45:26;;;;;;;0.90;0.53;;;;;;;1.22;100.00;98512.66;10500344;28;20586;-73
2021/04/06 06:50:48;;;;;;;1.37;1.27;;;;;;;1.18;100.00;98517.22;10501350;28;20167;-73
2021/04/06 06:56:10;;;;;;;1.00;0.60;;;;;;;1.26;100.00;98521.66;10485765;28;20171;-73
2021/04/06 07:01:32;;;;;;;0.90;0.80;;;;;;;1.19;100.00;98536.94;10484524;28;20261;-73
2021/04/06 07:06:58;;;;;;;0.80;0.50;;;;;;;1.29;100.00;98526.38;10500180;28;20206;-73
2021/04/06 07:12:17;;;;;;;2.07;1.57;;;;;;;1.29;100.00;98522.88;10500444;28;20210;-73
2021/04/06 07:17:39;;;;;;;1.10;0.80;;;;;;;1.32;100.00;98531.09;10482784;28;20174;-73
2021/04/06 07:23:03;;;;;;;1.30;0.73;;;;;;;1.35;100.00;98524.16;10531719;28;20194;-73
2021/04/06 07:28:22;;;;;;;0.80;0.50;;;;;;;1.35;100.00;98530.41;10540413;28;20226;-73
2021/04/06 07:33:44;;;;;;;1.37;0.70;;;;;;;1.49;100.00;98527.22;10541044;28;20740;-73
2021/04/06 07:39:10;;;;;;;2.60;1.13;;;;;;;1.47;100.00;98524.84;10525911;28;20174;-73
2021/04/06 07:44:33;;;;;;;0.80;0.47;;;;;;;1.36;100.00;98534.69;10524033;28;20644;-73
2021/04/06 07:49:52;;;;;;;1.83;1.00;;;;;;;1.47;100.00;98522.13;10532916;28;20178;-73
2021/04/06 07:55:12;;;;;;;1.10;1.00;;;;;;;1.47;100.00;98516.72;10540092;28;20181;-73
2021/04/06 08:00:50;;;;;;;1.00;0.53;;;;;;;1.66;100.00;98516.75;10523687;28;20260;-73
2021/04/06 08:06:20;;;;;;;0.90;0.70;;;;;;;2.47;100.00;98515.31;10539991;28;20205;-73
2021/04/06 08:12:06;;;;;;;1.00;0.83;;;;;;;3.01;98.63;98515.09;10524776;28;20174;-73
2021/04/06 08:17:25;;;;;;;0.90;0.60;;;;;;;2.92;98.13;98523.47;10538720;28;20699;-73
2021/04/06 08:22:51;;;;;;;4.77;1.90;;;;;;;3.31;100.00;98509.38;10539893;28;20209;-73
2021/04/06 08:28:31;;;;;;;0.90;0.50;;;;;;;2.89;100.00;98515.28;10538770;28;20226;-73
2021/04/06 08:33:51;;;;;;;1.47;0.60;;;;;;;2.09;100.00;98516.50;10505312;28;20215;-74
2021/04/06 08:39:10;;;;;;;1.00;0.60;;;;;;;1.37;100.00;98538.16;10482216;28;20179;-74
2021/04/06 08:44:29;;;;;;;0.90;0.63;;;;;;;0.99;100.00;98544.22;10506791;28;20178;-75
2021/04/06 08:49:48;;;;;;;1.83;0.80;;;;;;;0.93;100.00;98534.78;10481858;28;20558;-74
2021/04/06 08:55:10;;;;;;;0.80;0.53;;;;;;;1.01;100.00;98533.06;10497107;28;20183;-74
2021/04/06 09:00:29;;;;;;;1.00;0.80;;;;;;;1.26;100.00;98553.38;10495882;28;20194;-75
2021/04/06 09:05:48;;;;;;;0.90;0.77;;;;;;;1.53;100.00;98545.13;10496739;28;20202;-74
2021/04/06 09:11:07;;;;;;;0.90;0.80;;;;;;;1.52;100.00;98546.28;10496899;28;20198;-73
2021/04/06 09:16:31;;;;;;;23.43;3.17;;;;;;;2.45;100.00;98547.47;10495492;28;20624;-74
2021/04/06 09:21:59;;;;;;;1.00;0.70;;;;;;;3.25;100.00;98532.59;10496843;28;20170;-73
2021/04/06 09:27:18;;;;;;;0.90;0.80;;;;;;;3.15;100.00;98537.84;10495936;28;20234;-74
2021/04/06 09:32:38;;;;;;;0.80;0.57;;;;;;;3.30;100.00;98528.78;10495085;28;20191;-74
2021/04/06 09:37:58;;;;;;;1.50;1.00;;;;;;;3.70;100.00;98537.16;10489150;28;20253;-74
2021/04/06 09:43:18;;;;;;;1.87;1.77;;;;;;;3.85;100.00;98545.13;10495952;28;20179;-74
2021/04/06 09:48:37;;;;;;;1.10;1.00;;;;;;;2.85;100.00;98539.66;10513077;28;20213;-74
2021/04/06 09:53:56;;;;;;;0.90;0.70;;;;;;;2.51;100.00;98539.81;10514545;28;20641;-74
2021/04/06 09:59:16;;;;;;;0.90;0.60;;;;;;;2.15;100.00;98542.19;10502096;28;20717;-74
2021/04/06 10:04:41;;;;;;;1.77;1.43;;;;;;;2.88;100.00;98544.38;10503051;28;20183;-74
2021/04/06 10:10:24;;;;;;;1.10;1.00;;;;;;;4.22;100.00;98521.50;10487761;28;20179;-73
2021/04/06 10:15:43;;;;;;;0.90;0.70;;;;;;;4.41;100.00;98508.50;10501282;28;20178;-74
2021/04/06 10:21:02;;;;;;;2.03;1.70;;;;;;;3.15;100.00;98521.53;10502356;28;20649;-74
2021/04/06 10:26:23;;;;;;;1.00;0.90;;;;;;;1.77;100.00;98520.50;10501728;28;20226;-73
2021/04/06 10:31:51;;;;;;;0.80;0.60;;;;;;;1.18;100.00;98509.09;10485482;28;20230;-73
2021/04/06 10:37:10;;;;;;;0.80;0.40;;;;;;;1.29;100.00;98515.56;10498116;28;20186;-73
2021/04/06 10:42:29;;;;;;;0.80;0.50;;;;;;;1.54;100.00;98511.44;10501609;28;20625;-73
2021/04/06 10:48:28;;;;;;;2.23;1.87;;;;;;;3.01;100.00;98502.28;10484359;28;20206;-73
2021/04/06 10:53:50;;;;;;;0.80;0.50;;;;;;;4.47;100.00;98482.50;10485740;28;20167;-73
2021/04/06 10:59:11;;;;;;;0.90;0.57;;;;;;;3.78;100.00;98485.19;10499075;28;20210;-74
2021/04/06 11:04:41;;;;;;;1.27;1.17;;;;;;;3.92;100.00;98469.84;10512203;28;20637;-74
2021/04/06 11:10:07;;;;;;;1.10;0.97;;;;;;;5.09;100.00;98457.00;10511117;28;20191;-74
2021/04/06 11:15:26;;;;;;;0.80;0.40;;;;;;;4.67;100.00;98451.19;10498947;28;20175;-74
2021/04/06 11:20:45;;;;;;;1.50;1.40;;;;;;;4.66;99.15;98455.06;10500070;28;20221;-74
2021/04/06 11:26:04;;;;;;;1.00;0.80;;;;;;;3.42;100.00;98466.84;10499351;28;20238;-74
2021/04/06 11:31:24;;;;;;;1.13;1.00;;;;;;;4.20;100.00;98450.31;10483254;28;20596;-74
2021/04/06 11:36:48;;;;;;;1.00;0.60;;;;;;;5.52;100.00;98438.59;10499252;28;20171;-75
2021/04/06 11:42:09;;;;;;;2.60;1.13;;;;;;;5.84;96.72;98442.28;10499107;28;20175;-73
2021/04/06 11:47:28;;;;;;;0.80;0.50;;;;;;;4.85;92.18;98446.66;10482247;28;20206;-74
2021/04/06 11:52:47;;;;;;;0.80;0.50;;;;;;;5.84;91.74;98445.00;10498699;28;20182;-73
2021/04/06 11:58:07;;;;;;;0.83;0.47;;;;;;;5.71;67.15;98434.78;10483452;28;20174;-74
2021/04/06 12:03:26;;;;;;;2.00;1.10;;;;;;;6.46;64.39;98422.56;10497296;28;20198;-74
2021/04/06 12:08:45;;;;;;;0.90;0.60;;;;;;;5.35;68.23;98432.22;10496928;28;20673;-74
2021/04/06 12:14:05;;;;;;;1.57;1.47;;;;;;;3.53;94.32;98459.59;10481709;28;20570;-74
2021/04/06 12:19:24;;;;;;;0.87;0.50;;;;;;;3.52;87.49;98440.94;10497788;28;20253;-73
2021/04/06 12:24:43;;;;;;;0.80;0.50;;;;;;;4.53;78.59;98426.53;10526330;28;20217;-73
2021/04/06 12:30:03;;;;;;;0.90;0.80;;;;;;;5.75;76.96;98419.97;10484614;28;20206;-74
2021/04/06 12:35:22;;;;;;;1.70;0.67;;;;;;;6.27;70.48;98424.88;10481920;28;20629;-74
2021/04/06 12:40:42;;;;;;;34.07;2.33;;;;;;;5.83;74.60;98405.22;10497560;28;20182;-73
2021/04/06 12:46:01;;;;;;;0.80;0.50;;;;;;;6.18;65.95;98404.59;10496164;28;20202;-73
2021/04/06 12:51:20;;;;;;;0.90;0.60;;;;;;;4.86;70.74;98405.44;10497364;28;20171;-73
2021/04/06 12:56:38;;;;;;;1.00;0.80;;;;;;;6.82;71.26;98396.84;10497364;28;20239;-74
2021/04/06 13:01:57;;;;;;;1.20;0.80;;;;;;;5.88;65.91;98387.69;10488688;28;20632;-73
2021/04/06 13:07:17;;;;;;;1.00;0.77;;;;;;;5.12;70.57;98386.16;10496745;28;20707;-73
2021/04/06 13:12:37;;;;;;;0.90;0.70;;;;;;;4.66;74.20;98378.81;10523527;28;20182;-73
2021/04/06 13:17:56;;;;;;;1.00;0.53;;;;;;;4.51;75.06;98382.56;10537416;28;20534;-73
2021/04/06 13:23:15;;;;;;;0.90;0.60;;;;;;;5.20;73.74;98373.34;10546670;28;20268;-73
2021/04/06 13:28:34;;;;;;;1.10;0.70;;;;;;;6.30;63.44;98358.53;10530519;28;20252;-72
2021/04/06 13:33:53;;;;;;;0.90;0.70;;;;;;;7.23;57.90;98329.56;10530848;28;20181;-73
2021/04/06 13:39:14;;;;;;;1.00;0.63;;;;;;;7.19;57.06;98335.06;10546053;28;20174;-73
2021/04/06 13:44:35;;;;;;;0.87;0.50;;;;;;;7.23;56.33;98338.56;10544667;28;20253;-74
2021/04/06 13:49:55;;;;;;;0.90;0.60;;;;;;;6.75;56.93;98349.59;10545688;28;20640;-73
2021/04/06 13:55:14;;;;;;;0.90;0.60;;;;;;;5.81;63.90;98347.53;10545449;28;20269;-74
2021/04/06 14:00:37;;;;;;;0.80;0.47;;;;;;;5.32;66.25;98356.66;10528442;28;20206;-74
2021/04/06 14:05:56;;;;;;;0.90;0.70;;;;;;;4.91;65.88;98347.06;10544953;28;20622;-73
2021/04/06 14:11:15;;;;;;;0.80;0.40;;;;;;;4.89;60.67;98341.22;10544814;28;20260;-73
2021/04/06 14:16:34;;;;;;;0.80;0.53;;;;;;;4.74;60.30;98350.47;10543250;28;20182;-73
2021/04/06 14:21:53;;;;;;;1.00;0.60;;;;;;;4.37;65.16;98366.09;10529265;28;20177;-73
2021/04/06 14:27:12;;;;;;;1.00;0.80;;;;;;;4.57;64.96;98370.16;10543542;28;20230;-73
2021/04/06 14:32:31;;;;;;;1.10;1.00;;;;;;;4.13;63.81;98374.81;10541783;28;20655;-72
2021/04/06 14:37:50;;;;;;;0.80;0.40;;;;;;;3.61;69.50;98359.88;10528177;28;20177;-72
2021/04/06 14:43:21;;;;;;;0.83;0.53;;;;;;;3.34;70.87;98339.34;10543291;28;20593;-72
2021/04/06 14:48:48;;;;;;;1.27;0.80;;;;;;;3.78;71.61;98332.88;10541267;28;20237;-73
2021/04/06 14:54:08;;;;;;;0.90;0.60;;;;;;;4.86;66.41;98329.13;10543068;28;20182;-72
2021/04/06 14:59:56;;;;;;;1.70;1.20;;;;;;;6.26;62.73;98313.31;10526390;28;20200;-73
2021/04/06 15:05:16;;;;;;;0.80;0.40;;;;;;;7.14;59.78;98296.41;10526405;28;20667;-74
2021/04/06 15:10:35;;;;;;;1.90;1.73;;;;;;;7.00;56.95;98295.66;10527069;28;20257;-75
2021/04/06 15:15:55;;;;;;;0.90;0.80;;;;;;;6.20;57.33;98304.72;10540935;28;20173;-75
2021/04/06 15:21:16;;;;;;;0.90;0.50;;;;;;;5.61;60.12;98337.31;10541912;28;20221;-75
2021/04/06 15:26:35;;;;;;;0.90;0.50;;;;;;;5.04;62.03;98323.78;10525965;28;20241;-74
2021/04/06 15:31:55;;;;;;;0.80;0.40;;;;;;;3.89;72.02;98365.63;10540176;28;20229;-74
2021/04/06 15:37:14;;;;;;;0.80;0.40;;;;;;;3.26;82.18;98360.22;10541174;28;20194;-74
2021/04/06 15:42:34;;;;;;;1.00;0.87;;;;;;;2.99;92.63;98376.91;10525689;28;20186;-74
2021/04/06 15:47:53;;;;;;;0.90;0.70;;;;;;;2.18;100.00;98381.44;10539315;28;20596;-74
2021/04/06 15:53:13;;;;;;;0.80;0.40;;;;;;;2.32;100.00;98365.38;10540654;28;20181;-74
2021/04/06 15:58:34;;;;;;;0.90;0.60;;;;;;;2.22;100.00;98336.13;10525304;28;20202;-74
2021/04/06 16:03:55;;;;;;;0.80;0.50;;;;;;;2.97;100.00;98322.19;10525066;28;20201;-75
2021/04/06 16:09:14;;;;;;;1.57;0.87;;;;;;;4.82;97.69;98322.88;10524217;28;20209;-75
2021/04/06 16:14:33;;;;;;;0.80;0.50;;;;;;;5.08;97.95;98328.09;10538884;28;20182;-74
2021/04/06 16:19:58;;;;;;;0.90;0.63;;;;;;;4.96;93.70;98322.97;10524550;28;20182;-75
2021/04/06 16:25:19;;;;;;;2.20;2.00;;;;;;;4.99;98.82;98316.75;10539427;28;20583;-75
2021/04/06 16:30:51;;;;;;;1.20;0.90;;;;;;;3.65;100.00;98322.59;10522461;28;20553;-75
2021/04/06 16:36:12;;;;;;;4.00;1.53;;;;;;;3.55;100.00;98326.00;10534214;28;20178;-74
2021/04/06 16:41:32;;;;;;;1.33;0.87;;;;;;;3.38;100.00;98319.22;10539321;28;20177;-75
2021/04/06 16:46:51;;;;;;;3.17;2.00;;;;;;;3.42;100.00;98330.13;10537581;28;20213;-74
2021/04/06 16:52:10;;;;;;;1.53;0.90;;;;;;;3.44;100.00;98327.81;10539134;28;20178;-74
2021/04/06 16:57:29;;;;;;;0.80;0.40;;;;;;;2.94;100.00;98333.78;10531665;28;20205;-75
2021/04/06 17:02:49;;;;;;;1.97;0.80;;;;;;;3.00;100.00;98340.44;10530896;28;20628;-76
2021/04/06 17:08:08;;;;;;;0.80;0.60;;;;;;;3.00;100.00;98335.00;10531531;28;20214;-75
2021/04/06 17:13:27;;;;;;;0.90;0.70;;;;;;;2.84;100.00;98350.69;10547201;28;20262;-75
2021/04/06 17:18:46;;;;;;;1.63;0.60;;;;;;;2.59;100.00;98349.53;10546201;28;20170;-74
2021/04/06 17:24:06;;;;;;;0.90;0.67;;;;;;;2.66;100.00;98333.38;10546688;28;20222;-74
2021/04/06 17:29:26;;;;;;;1.97;0.80;;;;;;;2.60;100.00;98325.91;10544718;28;20198;-74
2021/04/06 17:34:45;;;;;;;1.40;1.30;;;;;;;2.53;100.00;98321.16;10546187;28;20632;-74
2021/04/06 17:40:09;;;;;;;0.80;0.47;;;;;;;2.60;100.00;98340.25;10546126;28;20174;-73
2021/04/06 17:45:31;;;;;;;1.20;1.10;;;;;;;2.55;100.00;98342.47;10544479;28;20193;-73
2021/04/06 17:50:51;;;;;;;1.87;1.77;;;;;;;2.49;100.00;98346.66;10545774;28;20202;-74
2021/04/06 17:56:11;;;;;;;2.77;1.07;;;;;;;2.51;100.00;98357.94;10545347;28;20614;-74
2021/04/06 18:01:30;;;;;;;0.80;0.50;;;;;;;2.52;100.00;98357.56;10528621;28;20536;-74
2021/04/06 18:06:49;;;;;;;0.80;0.40;;;;;;;2.62;100.00;98375.97;10543380;28;20209;-75
2021/04/06 18:12:08;;;;;;;0.90;0.77;;;;;;;2.12;100.00;98383.66;10529493;28;20182;-76
2021/04/06 18:17:27;;;;;;;0.80;0.40;;;;;;;1.68;100.00;98395.22;10543599;28;20170;-76
2021/04/06 18:22:47;;;;;;;1.00;0.80;;;;;;;1.56;100.00;98381.78;10544401;28;20174;-73
2021/04/06 18:28:06;;;;;;;1.73;0.50;;;;;;;1.50;100.00;98385.94;10527875;28;20594;-74
2021/04/06 18:33:28;;;;;;;0.80;0.60;;;;;;;1.40;100.00;98388.44;10542806;28;20573;-74
2021/04/06 18:38:47;;;;;;;1.10;0.50;;;;;;;1.37;100.00;98387.22;10544086;28;20182;-75
2021/04/06 18:44:07;;;;;;;1.50;0.90;;;;;;;1.46;100.00;98387.78;10526566;28;20211;-75
2021/04/06 18:49:26;;;;;;;0.80;0.40;;;;;;;1.40;100.00;98394.63;10542670;28;20206;-74
2021/04/06 18:54:45;;;;;;;1.20;1.10;;;;;;;1.32;100.00;98389.44;10543098;28;20174;-75
2021/04/06 19:00:05;;;;;;;0.80;0.50;;;;;;;1.35;100.00;98388.69;10541634;28;20178;-74
2021/04/06 19:05:25;;;;;;;0.80;0.40;;;;;;;1.32;100.00;98394.84;10527165;28;20214;-75
2021/04/06 19:10:47;;;;;;;3.63;1.17;;;;;;;1.33;100.00;98397.19;10527176;28;20231;-75
2021/04/06 19:16:06;;;;;;;1.33;0.60;;;;;;;1.43;99.56;98385.00;10525324;28;20178;-75
2021/04/06 19:21:25;;;;;;;1.80;1.70;;;;;;;1.38;100.00;98383.34;10526632;28;20198;-75
2021/04/06 19:26:44;;;;;;;0.90;0.60;;;;;;;1.38;99.95;98396.91;10541326;28;20275;-75
2021/04/06 19:32:03;;;;;;;1.20;1.10;;;;;;;1.46;99.69;98401.31;10540290;28;20174;-75
2021/04/06 19:37:22;;;;;;;0.90;0.50;;;;;;;1.50;99.32;98395.97;10541515;28;20174;-74
2021/04/06 19:42:42;;;;;;;0.80;0.50;;;;;;;1.53;98.57;98401.50;10541125;28;20203;-73
2021/04/06 19:48:06;;;;;;;0.90;0.70;;;;;;;1.42;99.84;98397.78;10539396;28;20237;-74
2021/04/06 19:53:26;;;;;;;1.07;0.97;;;;;;;1.40;100.00;98404.69;10525007;28;20170;-75
2021/04/06 19:58:45;;;;;;;0.80;0.40;;;;;;;1.43;98.98;98407.47;10540030;28;20664;-76
2021/04/06 20:04:04;;;;;;;0.80;0.40;;;;;;;1.22;100.00;98408.94;10540552;28;20178;-75
2021/04/06 20:09:24;;;;;;;0.80;0.50;;;;;;;1.19;100.00;98415.06;10539510;28;20206;-75
2021/04/06 20:14:43;;;;;;;0.80;0.50;;;;;;;1.24;100.00;98406.69;10538852;28;20257;-75
2021/04/06 20:20:06;;;;;;;0.80;0.50;;;;;;;1.23;100.00;98408.59;10539963;28;20249;-75
2021/04/06 20:25:27;;;;;;;0.80;0.40;;;;;;;1.31;97.94;98415.72;10539316;28;20225;-76
2021/04/06 20:30:49;;;;;;;0.80;0.40;;;;;;;1.27;96.84;98424.91;10537636;28;20199;-74
2021/04/06 20:36:08;;;;;;;1.10;0.70;;;;;;;1.30;95.56;98422.28;10539583;28;20174;-76
2021/04/06 20:41:29;;;;;;;1.00;0.60;;;;;;;1.33;96.21;98423.53;10539363;28;20527;-75
2021/04/06 20:46:48;;;;;;;0.80;0.40;;;;;;;1.31;95.46;98426.56;10537578;28;20205;-74
2021/04/06 20:52:10;;;;;;;0.80;0.50;;;;;;;1.42;93.17;98414.03;10539143;28;20174;-75
2021/04/06 20:57:29;;;;;;;0.80;0.40;;;;;;;1.39;93.60;98425.56;10538996;28;20533;-74
2021/04/06 21:02:48;;;;;;;0.90;0.60;;;;;;;1.33;94.83;98421.56;10537592;28;20178;-74
2021/04/06 21:08:08;;;;;;;0.90;0.50;;;;;;;1.36;96.17;98430.91;10523006;28;20209;-75
2021/04/06 21:13:27;;;;;;;1.00;0.90;;;;;;;1.29;95.90;98439.69;10538828;28;20166;-74
2021/04/06 21:18:46;;;;;;;0.80;0.60;;;;;;;1.23;97.04;98434.91;10522839;28;20170;-74
2021/04/06 21:24:06;;;;;;;0.97;0.87;;;;;;;1.18;96.39;98432.44;10522928;28;20230;-75
2021/04/06 21:29:25;;;;;;;0.93;0.67;;;;;;;1.15;96.74;98433.94;10536470;28;20262;-76
2021/04/06 21:34:44;;;;;;;0.80;0.40;;;;;;;1.10;96.19;98426.09;10538220;28;20257;-75
2021/04/06 21:40:05;;;;;;;0.80;0.50;;;;;;;1.19;94.11;98439.44;10540319;28;20178;-75
2021/04/06 21:45:25;;;;;;;0.80;0.50;;;;;;;1.17;95.00;98437.09;10544621;28;20194;-75
2021/04/06 21:50:44;;;;;;;0.90;0.53;;;;;;;1.17;95.98;98444.44;10545833;28;20177;-74
2021/04/06 21:56:03;;;;;;;0.90;0.60;;;;;;;1.14;97.20;98455.97;10545580;28;20170;-74
2021/04/06 22:01:22;;;;;;;1.00;0.80;;;;;;;1.17;96.55;98455.28;10544348;28;20209;-75
2021/04/06 22:06:41;;;;;;;0.90;0.63;;;;;;;1.18;98.17;98451.41;10544599;28;20208;-75
2021/04/06 22:12:00;;;;;;;0.87;0.70;;;;;;;1.23;97.98;98457.34;10545109;28;20174;-75
2021/04/06 22:17:20;;;;;;;1.20;0.80;;;;;;;1.15;99.25;98455.63;10543392;28;20261;-74
2021/04/06 22:22:46;;;;;;;4.90;1.23;;;;;;;1.08;100.00;98450.03;10544529;28;20182;-74
2021/04/06 22:28:09;;;;;;;0.90;0.80;;;;;;;0.91;100.00;98439.59;10543715;28;20237;-75
2021/04/06 22:33:30;;;;;;;3.13;0.93;;;;;;;0.77;100.00;98443.09;10527135;28;20636;-75
2021/04/06 22:38:50;;;;;;;0.90;0.50;;;;;;;0.71;100.00;98453.41;10543940;28;20178;-75
2021/04/06 22:44:09;;;;;;;1.23;1.13;;;;;;;0.67;100.00;98454.44;10526290;28;20536;-75
2021/04/06 22:49:29;;;;;;;0.80;0.40;;;;;;;0.66;100.00;98456.38;10542983;28;20214;-75
2021/04/06 22:54:48;;;;;;;1.10;0.63;;;;;;;0.64;100.00;98452.47;10526899;28;20194;-75
2021/04/06 23:00:15;;;;;;;0.90;0.60;;;;;;;0.60;100.00;98470.53;10541730;28;20582;-75
2021/04/06 23:05:34;;;;;;;0.80;0.40;;;;;;;0.60;100.00;98467.81;10543090;28;20177;-76
2021/04/06 23:11:05;;;;;;;7.40;0.87;;;;;;;0.62;100.00;98470.97;10527260;28;20538;-76
2021/04/06 23:16:24;;;;;;;1.70;1.20;;;;;;;0.71;100.00;98471.56;10540952;28;20178;-75
2021/04/06 23:21:44;;;;;;;0.80;0.40;;;;;;;0.75;100.00;98480.56;10526635;28;20199;-74
2021/04/06 23:27:03;;;;;;;1.40;1.10;;;;;;;0.68;100.00;98478.47;10541324;28;20312;-75
2021/04/06 23:32:22;;;;;;;2.50;0.80;;;;;;;0.72;100.00;98482.03;10540201;28;20177;-75
2021/04/06 23:37:42;;;;;;;1.20;0.67;;;;;;;0.77;100.00;98500.72;10525673;28;20182;-75
2021/04/06 23:43:02;;;;;;;0.90;0.70;;;;;;;0.70;100.00;98502.47;10541461;28;20166;-75
2021/04/06 23:48:21;;;;;;;7.23;2.17;;;;;;;0.77;100.00;98506.13;10539303;28;20659;-75
2021/04/06 23:53:40;;;;;;;3.07;2.87;;;;;;;0.99;99.76;98511.72;10540989;28;20174;-75
2021/04/06 23:58:59;;;;;;;1.40;0.90;;;;;;;0.93;100.00;98517.75;10539314;28;20248;-74
